Time;durP1;ratioP1;P1;durP2;ratioP2;P2;SDS_P1;SDS_P2;PMS_P1;PMS_P2;Temp;Humidity;BMP_temperature;BMP_pressure;BME280_temperature;BME280_humidity;BME280_pressure;Samples;Min_cycle;Max_cycle;Signal;HPM_P1;HPM_P2
2022/06/27 14:24:48;;;;;;;4.45;3.17;;;40.50;31.60;;;31.26;33.41;95711.97;5049111;28;20336;-51
2022/06/27 14:27:18;;;;;;;4.75;3.40;;;40.20;29.20;;;30.11;33.83;95711.03;5044518;28;20601;-48
2022/06/27 14:29:45;;;;;;;2.83;2.60;;;40.30;27.70;;;30.61;33.19;95714.69;5026193;28;20017;-52
2022/06/27 14:32:12;;;;;;;6.35;3.30;;;40.60;27.00;;;31.39;33.23;95709.63;5024619;28;20033;-50
2022/06/27 14:34:38;;;;;;;2.83;2.72;;;41.00;26.40;;;31.53;32.13;95704.09;5027147;28;20100;-49
2022/06/27 14:37:04;;;;;;;4.55;4.15;;;41.60;25.90;;;31.61;31.69;95705.63;5020457;28;20039;-54
2022/06/27 14:39:34;;;;;;;3.13;2.92;;;42.10;25.20;;;31.77;31.72;95699.66;5026479;28;20029;-54
2022/06/27 14:42:01;;;;;;;3.90;3.70;;;42.50;24.60;;;31.74;31.40;95692.97;5023123;28;20055;-51
2022/06/27 14:47:20;;;;;;;3.42;3.22;;;43.30;23.60;;;32.13;30.93;95685.75;5006369;28;20032;-50
2022/06/27 14:49:55;;;;;;;2.75;2.58;;;43.80;23.20;;;31.57;30.18;95686.38;5006166;28;20053;-53
2022/06/27 14:52:24;;;;;;;3.17;2.80;;;43.70;22.60;;;31.48;30.92;95694.25;5021971;28;20025;-50
2022/06/27 14:54:49;;;;;;;1.90;1.80;;;42.90;22.70;;;30.86;31.35;95700.22;5013175;28;20079;-51
2022/06/27 14:57:15;;;;;;;1.92;1.73;;;41.70;22.90;;;30.81;31.94;95697.88;5026032;28;20021;-52
2022/06/27 14:59:45;;;;;;;1.50;1.40;;;40.50;23.50;;;30.16;32.51;95697.72;5026305;28;20462;-51
2022/06/27 15:02:19;;;;;;;3.90;1.80;;;39.40;24.10;;;29.55;33.17;95701.38;5024961;28;20108;-51
2022/06/27 15:04:50;;;;;;;1.63;1.52;;;38.30;24.60;;;28.87;34.13;95696.25;5025645;28;20040;-53
2022/06/27 15:07:50;;;;;;;1.50;1.40;;;37.10;25.10;;;28.23;34.79;95698.38;5026925;28;20028;-49
2022/06/27 15:10:16;;;;;;;2.17;1.33;;;36.10;25.70;;;28.00;35.43;95691.09;5025845;28;20371;-54
2022/06/27 15:12:49;;;;;;;1.52;1.42;;;35.20;26.30;;;27.62;36.56;95681.25;5024560;28;20463;-53
2022/06/27 15:15:27;;;;;;;;;;;34.40;27.00;;;27.03;37.40;95680.03;5012728;28;20140;-52
2022/06/27 15:17:56;;;;;;;2.35;1.25;;;33.70;27.40;;;26.79;38.37;95679.28;5009116;28;19905;-53
2022/06/27 15:20:22;;;;;;;1.45;1.35;;;33.10;28.10;;;26.39;39.52;95696.94;5017762;28;20479;-54
2022/06/27 15:22:48;;;;;;;2.25;1.58;;;32.50;28.70;;;26.26;39.68;95699.06;5015454;28;20144;-50
2022/06/27 15:25:14;;;;;;;2.75;1.30;;;31.90;29.30;;;25.98;39.80;95707.50;5041483;28;20028;-50
2022/06/27 15:27:39;;;;;;;1.40;1.30;;;31.50;29.80;;;25.86;40.29;95701.44;5013707;28;20044;-48
2022/06/27 15:30:07;;;;;;;2.75;1.08;;;31.00;30.20;;;25.71;40.17;95703.81;5020531;28;20025;-47
2022/06/27 15:32:39;;;;;;;3.88;1.27;;;30.70;30.80;;;25.45;40.58;95709.13;5017241;23;20526;-44
2022/06/27 15:35:05;;;;;;;1.23;1.13;;;30.40;31.20;;;25.18;41.02;95714.38;5001509;28;20400;-44
2022/06/27 15:37:31;;;;;;;0.90;0.90;;;30.10;31.60;;;24.73;41.95;95721.09;4988959;28;20083;-50
2022/06/27 15:39:57;;;;;;;1.23;1.13;;;29.70;32.00;;;24.48;42.95;95741.47;4974311;28;20435;-43
2022/06/27 15:42:24;;;;;;;1.67;1.05;;;29.40;32.50;;;24.18;43.59;95753.50;4969301;28;20018;-45
2022/06/27 15:44:50;;;;;;;2.15;0.88;;;29.00;32.90;;;24.04;43.91;95758.56;4955607;28;20041;-52
2022/06/27 15:47:16;;;;;;;1.75;1.10;;;28.80;33.40;;;23.88;44.46;95769.38;4954086;28;20027;-49
2022/06/27 15:49:48;;;;;;;1.77;1.20;;;28.50;34.00;;;23.41;45.62;95771.81;4952225;28;20026;-47
2022/06/27 15:52:14;;;;;;;1.00;0.93;;;28.20;34.40;;;23.22;46.67;95775.13;4953219;28;20054;-45
2022/06/27 15:54:46;;;;;;;2.90;1.10;;;27.90;34.90;;;22.95;48.45;95782.06;4952073;28;20504;-43
2022/06/27 15:57:15;;;;;;;4.32;1.27;;;27.70;35.80;;;22.54;52.38;95794.66;4967946;28;20117;-43
2022/06/27 15:59:41;;;;;;;1.70;1.50;;;27.40;37.30;;;22.04;58.38;95801.00;4958092;28;20033;-46
2022/06/27 16:02:07;;;;;;;2.05;1.58;;;26.90;39.30;;;21.43;61.51;95790.59;4982453;28;20398;-47
2022/06/27 16:04:33;;;;;;;1.33;1.23;;;26.30;41.20;;;20.80;65.14;95791.22;4966512;28;20034;-45
2022/06/27 16:07:04;;;;;;;2.88;1.30;;;25.60;43.00;;;20.46;65.55;95800.22;4971726;28;20022;-43
2022/06/27 16:09:30;;;;;;;3.15;1.38;;;25.10;44.40;;;20.22;67.75;95824.31;4967880;28;20469;-43
2022/06/27 16:11:57;;;;;;;1.95;1.40;;;24.60;45.90;;;19.83;70.55;95834.16;4986105;28;20484;-43
2022/06/27 16:14:23;;;;;;;1.92;1.73;;;24.10;47.50;;;19.76;73.48;95806.81;4963806;28;20030;-44
2022/06/27 16:16:51;;;;;;;10.43;2.20;;;23.70;48.80;;;19.39;73.12;95754.94;4968861;28;20018;-43
2022/06/27 16:19:22;;;;;;;3.47;2.17;;;23.30;49.60;;;19.14;75.41;95797.00;4968045;28;20022;-43
2022/06/27 16:21:48;;;;;;;4.93;2.55;;;23.00;51.00;;;18.71;77.70;95854.28;4959701;28;20022;-49
2022/06/27 16:24:17;;;;;;;24.33;3.80;;;22.70;51.70;;;18.50;79.96;95840.50;4967919;28;20480;-44
2022/06/27 16:26:43;;;;;;;7.30;2.22;;;22.40;53.10;;;18.45;79.00;95824.44;4980808;28;20398;-49
2022/06/27 16:29:09;;;;;;;4.85;2.70;;;22.20;53.50;;;18.38;78.94;95838.38;4961812;28;20842;-50
2022/06/27 16:31:41;;;;;;;3.88;2.50;;;22.00;54.30;;;18.27;78.72;95827.06;4963963;28;20038;-51
2022/06/27 16:34:10;;;;;;;5.57;2.30;;;21.80;54.90;;;18.09;79.16;95828.03;4977556;28;20034;-44
2022/06/27 16:36:36;;;;;;;5.68;2.63;;;21.70;55.70;;;17.96;81.74;95835.09;4948673;28;20030;-44
2022/06/27 16:39:04;;;;;;;4.10;2.45;;;21.60;56.20;;;17.86;81.39;95826.41;4961397;28;20037;-45
2022/06/27 16:44:17;;;;;;;3.88;2.00;;;21.30;57.20;;;17.60;81.30;95818.88;4963360;28;20045;-49
2022/06/27 16:46:44;;;;;;;5.82;2.40;;;21.20;57.50;;;17.51;82.40;95826.88;4975918;28;20029;-55
2022/06/27 16:49:10;;;;;;;5.00;2.42;;;21.10;58.00;;;17.50;84.41;95846.03;4966331;28;20030;-54
2022/06/27 16:51:37;;;;;;;5.60;2.58;;;21.00;58.60;;;17.48;84.80;95848.22;4968303;28;20018;-43
2022/06/27 16:54:03;;;;;;;4.18;2.65;;;20.90;59.00;;;17.46;84.27;95869.31;4966542;28;20587;-53
2022/06/27 16:56:29;;;;;;;5.82;2.45;;;20.90;59.30;;;17.42;85.80;95889.81;4967795;28;20106;-53
2022/06/27 16:58:55;;;;;;;9.75;3.08;;;20.80;59.70;;;17.40;86.13;95903.59;4965931;28;20045;-46
2022/06/27 17:01:21;;;;;;;6.95;2.92;;;20.80;60.20;;;17.37;86.52;95919.56;4985943;28;20083;-46
2022/06/27 17:03:47;;;;;;;3.78;2.60;;;20.80;60.70;;;17.26;86.97;95946.66;4964351;28;20022;-45
2022/06/27 17:06:13;;;;;;;5.03;2.90;;;20.80;61.20;;;17.16;87.66;95967.59;4972195;28;20431;-47
2022/06/27 17:08:40;;;;;;;5.63;4.05;;;20.70;61.60;;;17.07;88.37;95970.16;4967941;28;20026;-47
2022/06/27 17:11:06;;;;;;;5.22;2.78;;;20.60;62.00;;;16.92;87.84;95963.16;4964988;28;20046;-47
2022/06/27 17:13:33;;;;;;;10.52;3.08;;;20.50;62.50;;;16.88;86.66;95962.94;4967643;28;20469;-46
2022/06/27 17:16:01;;;;;;;3.53;2.30;;;20.50;62.80;;;16.77;86.79;95966.13;4984670;28;20111;-44
2022/06/27 17:18:28;;;;;;;5.30;2.65;;;20.40;63.00;;;16.74;87.41;95972.84;4985143;28;20018;-49
2022/06/27 17:20:56;;;;;;;2.55;2.20;;;20.30;63.20;;;16.70;86.98;95957.56;4970548;28;20021;-48
2022/06/27 17:23:22;;;;;;;2.85;2.30;;;20.20;63.20;;;16.69;85.82;95919.13;4952193;28;20089;-44
2022/06/27 17:25:48;;;;;;;2.47;1.75;;;20.20;63.30;;;16.58;85.42;95888.16;4967547;28;20026;-44
2022/06/27 17:28:17;;;;;;;4.03;2.25;;;20.10;63.40;;;16.57;85.91;95913.41;4969137;28;20921;-44
2022/06/27 17:30:43;;;;;;;3.20;2.20;;;20.10;63.40;;;16.56;86.35;95919.91;4969877;28;20070;-45
2022/06/27 17:33:11;;;;;;;3.65;2.13;;;20.10;63.60;;;16.55;87.12;95921.78;4981489;28;20027;-44
2022/06/27 17:35:41;;;;;;;2.95;2.15;;;20.10;63.90;;;16.60;87.36;95953.97;4974130;28;20025;-44
2022/06/27 17:38:08;;;;;;;4.78;1.73;;;20.20;64.00;;;16.47;87.59;95976.22;4977211;28;20023;-44
2022/06/27 17:40:34;;;;;;;3.13;1.98;;;20.30;63.90;;;16.52;87.43;95973.47;4989453;28;20803;-51
2022/06/27 17:43:00;;;;;;;4.10;2.28;;;20.40;64.00;;;16.59;87.53;95973.09;4974131;28;20048;-45
2022/06/27 17:45:26;;;;;;;5.65;2.25;;;20.40;63.90;;;16.60;87.22;95974.69;4975704;28;20496;-46
2022/06/27 17:47:54;;;;;;;3.13;1.88;;;20.40;63.90;;;16.45;86.64;96005.28;4968479;28;20025;-45
2022/06/27 17:50:20;;;;;;;1.70;1.50;;;20.40;64.10;;;16.34;87.29;96017.28;4986865;28;20029;-45
2022/06/27 17:52:46;;;;;;;4.93;1.83;;;20.30;64.10;;;16.41;87.56;96002.38;4978037;28;20022;-47
2022/06/27 17:55:15;;;;;;;3.55;1.85;;;20.20;64.30;;;16.27;85.79;95998.84;4967096;28;20026;-48
2022/06/27 17:57:43;;;;;;;2.00;1.27;;;20.20;64.60;;;16.25;85.67;95987.56;4977004;28;20030;-47
2022/06/27 18:00:13;;;;;;;3.50;1.42;;;20.10;64.50;;;16.26;86.28;95993.75;4991107;28;20113;-45
2022/06/27 18:02:42;;;;;;;2.28;1.80;;;20.00;64.70;;;16.22;86.17;95976.59;4984720;28;20018;-52
2022/06/27 18:05:12;;;;;;;3.38;1.73;;;19.90;64.70;;;16.10;85.73;95977.81;4955763;28;20025;-44
2022/06/27 18:07:38;;;;;;;2.53;1.60;;;19.90;64.80;;;16.14;85.96;95989.59;4976632;28;20395;-53
2022/06/27 18:10:08;;;;;;;3.53;2.20;;;19.80;64.90;;;16.12;86.87;95997.16;4973743;28;20026;-46
2022/06/27 18:12:41;;;;;;;3.67;1.90;;;19.90;65.20;;;16.07;87.50;95999.91;4969148;28;20025;-44
2022/06/27 18:15:13;;;;;;;1.70;1.60;;;19.80;65.40;;;15.99;87.94;96003.25;4960222;28;20026;-46
2022/06/27 18:17:42;;;;;;;2.03;1.70;;;19.70;65.60;;;15.96;88.15;95996.56;4985091;28;20018;-45
2022/06/27 18:20:09;;;;;;;4.93;1.80;;;19.70;65.50;;;15.94;87.93;95995.25;4968900;28;20500;-49
2022/06/27 18:22:40;;;;;;;8.10;1.85;;;19.60;65.60;;;15.91;88.18;95993.91;4968409;28;20485;-43
2022/06/27 18:25:08;;;;;;;5.97;1.85;;;19.60;66.20;;;15.91;88.33;95985.06;4968273;28;20038;-43
2022/06/27 18:27:37;;;;;;;3.03;1.90;;;19.60;66.10;;;15.92;88.18;96000.91;4985035;28;20050;-44
2022/06/27 18:30:04;;;;;;;2.25;1.55;;;19.60;66.30;;;15.91;88.05;96011.94;4985500;28;20018;-43
2022/06/27 18:32:30;;;;;;;2.10;1.58;;;19.50;66.40;;;15.88;88.55;96012.50;4985182;28;20942;-49
2022/06/27 18:34:56;;;;;;;4.40;1.50;;;19.50;67.20;;;15.86;88.59;96028.13;4970141;28;20030;-46
2022/06/27 18:37:25;;;;;;;4.53;1.75;;;19.50;66.50;;;15.81;88.32;96042.41;4978495;28;20182;-47
2022/06/27 18:39:55;;;;;;;3.92;1.80;;;19.50;66.50;;;15.78;88.28;96052.91;4959547;28;20548;-46
2022/06/27 18:42:24;;;;;;;4.68;1.63;;;19.40;66.60;;;15.73;88.73;96053.75;4950035;29;20031;-44
2022/06/27 18:45:54;;;;;;;2.85;2.20;;;19.40;66.80;;;15.71;89.43;96064.81;4968039;28;20112;-50
2022/06/27 18:48:20;;;;;;;6.78;2.05;;;19.40;66.90;;;15.68;89.93;96057.31;4947812;28;20026;-45
2022/06/27 18:50:52;;;;;;;2.53;1.73;;;19.30;66.80;;;15.64;90.15;96020.56;4955224;28;20117;-45
2022/06/27 18:53:23;;;;;;;5.67;1.90;;;19.30;67.20;;;15.58;89.90;96021.72;4939507;29;20030;-46
2022/06/27 18:55:51;;;;;;;4.10;2.00;;;19.20;67.00;;;15.57;90.17;96049.63;4951450;28;20030;-47
2022/06/27 18:58:20;;;;;;;8.57;2.20;;;19.20;67.30;;;15.54;89.97;96064.41;4950290;28;20027;-46
2022/06/27 19:00:48;;;;;;;1.83;1.58;;;19.20;67.60;;;15.47;89.94;96059.38;4950198;28;20381;-46
2022/06/27 19:03:14;;;;;;;3.33;2.05;;;19.20;67.50;;;15.50;90.25;96047.28;4949210;29;20023;-45
2022/06/27 19:05:40;;;;;;;6.40;2.45;;;19.10;67.60;;;15.47;90.48;96048.63;4949682;29;20031;-44
2022/06/27 19:08:09;;;;;;;6.07;2.53;;;19.10;67.70;;;15.26;92.07;95990.88;4963796;28;20022;-45
2022/06/27 19:10:38;;;;;;;5.05;2.50;;;19.10;67.90;;;15.06;92.93;95924.81;4961493;28;20069;-44
2022/06/27 19:13:04;;;;;;;3.85;2.20;;;19.00;68.30;;;15.21;92.44;95999.00;4955286;28;20038;-46
2022/06/27 19:15:30;;;;;;;7.80;2.22;;;19.00;68.30;;;15.26;92.89;95966.72;4988481;28;20033;-50
2022/06/27 19:17:56;;;;;;;6.47;2.40;;;18.90;68.40;;;15.20;93.13;95923.06;4973123;28;20041;-46
2022/06/27 19:20:25;;;;;;;3.58;2.33;;;18.90;68.60;;;15.24;93.07;95916.03;4972142;28;20484;-43
2022/06/27 19:22:52;;;;;;;5.43;2.53;;;18.90;68.80;;;15.24;92.87;95972.38;4973295;28;20472;-44
2022/06/27 19:25:20;;;;;;;3.75;2.05;;;18.90;68.90;;;15.23;91.72;95996.81;4971468;28;20315;-43
2022/06/27 19:27:46;;;;;;;2.40;1.90;;;18.90;69.20;;;15.24;91.81;95979.63;4971857;28;20149;-48
2022/06/27 19:30:13;;;;;;;2.17;1.63;;;18.90;69.10;;;15.17;90.76;95966.56;4972231;28;20109;-45
2022/06/27 19:32:39;;;;;;;4.95;1.90;;;18.80;69.00;;;15.16;90.82;95972.19;4970945;28;20042;-45
2022/06/27 19:35:06;;;;;;;2.90;1.70;;;18.80;69.00;;;15.12;90.52;95977.34;4970927;28;20049;-48
2022/06/27 19:37:32;;;;;;;1.75;1.40;;;18.80;69.00;;;15.13;90.39;95995.03;4971766;28;20026;-47
2022/06/27 19:39:59;;;;;;;3.75;1.80;;;18.80;69.00;;;15.13;90.73;96005.75;4970606;28;20054;-44
2022/06/27 19:42:26;;;;;;;4.82;1.92;;;18.70;69.00;;;15.12;90.78;96017.59;4971249;28;20064;-50
2022/06/27 19:44:52;;;;;;;3.75;2.45;;;18.70;69.00;;;15.10;90.70;96022.41;4972816;28;20037;-48
2022/06/27 19:47:18;;;;;;;2.50;2.00;;;18.70;69.20;;;15.07;90.71;96003.41;4954661;28;20046;-44
2022/06/27 19:49:44;;;;;;;4.90;1.88;;;18.70;69.20;;;15.02;91.27;95997.00;4962836;28;20056;-43
